Terminal Aerodrome Forecast
Issued by NWS

Home | Current Version | Previous Version | Text Only | Print | Product List | Glossary On
Versions: 1 2 3 4 5 6 7 8 9 10 11 12 13 14
000
FTUS45 KLKN 090520
TAFEKO
TAF
KEKO 090520Z 0906/1006 21006KT P6SM -SNRA BKN030 OVC050
     FM091600 22007KT P6SM -RASN OVC030
     FM091900 21008KT P6SM -SHRA BKN030=

USA.gov is the U.S. government's official web portal to all federal, state and local government web resources and services.